Time;durP1;ratioP1;P1;durP2;ratioP2;P2;SDS_P1;SDS_P2;PMS_P1;PMS_P2;Temp;Humidity;BMP_temperature;BMP_pressure;BME280_temperature;BME280_humidity;BME280_pressure;Samples;Min_cycle;Max_cycle;Signal;HPM_P1;HPM_P2
2022/01/01 00:02:27;;;;;;;5.60;1.00;;;;;;;;;;4989285;28;20052;-63
2022/01/01 00:04:54;;;;;;;7.07;1.40;;;;;;;;;;4987779;28;20034;-62
2022/01/01 00:07:21;;;;;;;3.67;1.40;;;;;;;;;;4989517;28;20034;-62
2022/01/01 00:09:48;;;;;;;7.43;1.52;;;;;;;;;;4988453;28;20042;-63
2022/01/01 00:12:15;;;;;;;12.77;1.95;;;;;;;;;;4987752;28;20510;-63
2022/01/01 00:14:42;;;;;;;9.23;1.50;;;;;;;;;;4989483;28;20050;-64
2022/01/01 00:17:09;;;;;;;7.63;2.28;;;;;;;;;;4988730;28;20030;-63
2022/01/01 00:19:36;;;;;;;5.97;1.60;;;;;;;;;;4989101;28;20467;-63
2022/01/01 00:22:04;;;;;;;8.15;1.50;;;;;;;;;;4988148;28;20034;-61
2022/01/01 00:24:31;;;;;;;9.40;1.85;;;;;;;;;;4988062;28;20726;-63
2022/01/01 00:26:58;;;;;;;4.00;1.33;;;;;;;;;;4988979;28;20030;-64
2022/01/01 00:29:24;;;;;;;8.48;1.83;;;;;;;;;;4988425;28;20477;-63
2022/01/01 00:31:51;;;;;;;6.43;1.50;;;;;;;;;;4988751;28;20504;-62
2022/01/01 00:34:18;;;;;;;6.07;1.75;;;;;;;;;;4988176;28;20391;-64
2022/01/01 00:36:45;;;;;;;6.70;1.85;;;;;;;;;;4988222;28;20026;-65
2022/01/01 00:39:12;;;;;;;6.95;1.83;;;;;;;;;;4989230;28;20030;-64
2022/01/01 00:41:39;;;;;;;5.40;1.42;;;;;;;;;;4988473;28;20101;-64
2022/01/01 00:44:07;;;;;;;5.47;1.40;;;;;;;;;;4988340;28;20499;-61
2022/01/01 00:46:34;;;;;;;7.30;1.80;;;;;;;;;;4986404;28;20056;-64
2022/01/01 00:49:01;;;;;;;4.15;1.50;;;;;;;;;;4987971;28;20121;-64
2022/01/01 00:51:28;;;;;;;4.53;1.38;;;;;;;;;;4987871;28;20442;-63
2022/01/01 00:53:54;;;;;;;7.53;2.28;;;;;;;;;;4988877;28;20034;-63
2022/01/01 00:56:21;;;;;;;7.57;1.73;;;;;;;;;;4988901;28;20118;-63
2022/01/01 00:58:48;;;;;;;5.25;1.65;;;;;;;;;;4986970;28;20030;-61
2022/01/01 01:01:15;;;;;;;7.97;1.58;;;;;;;;;;4988429;28;20041;-63
2022/01/01 01:03:42;;;;;;;16.92;3.35;;;;;;;;;;4989141;28;20022;-64
2022/01/01 01:06:13;;;;;;;7.28;2.33;;;;;;;;;;4988446;28;20156;-64
2022/01/01 01:08:41;;;;;;;5.80;2.22;;;;;;;;;;4989134;28;20219;-64
2022/01/01 01:11:08;;;;;;;12.40;2.78;;;;;;;;;;4986659;28;20105;-64
2022/01/01 01:13:38;;;;;;;13.68;3.17;;;;;;;;;;4986987;28;20517;-65
2022/01/01 01:16:06;;;;;;;15.10;3.20;;;;;;;;;;4988857;28;20200;-64
2022/01/01 01:18:33;;;;;;;16.65;3.28;;;;;;;;;;4988668;28;20026;-64
2022/01/01 01:21:00;;;;;;;14.00;3.38;;;;;;;;;;4988463;28;20058;-64
2022/01/01 01:23:27;;;;;;;11.73;3.58;;;;;;;;;;4986643;28;20632;-64
2022/01/01 01:25:55;;;;;;;12.60;4.20;;;;;;;;;;4988581;28;20037;-64
2022/01/01 01:28:23;;;;;;;11.60;3.90;;;;;;;;;;4988732;28;20521;-65
2022/01/01 01:30:50;;;;;;;12.80;4.38;;;;;;;;;;4988305;28;20074;-64
2022/01/01 01:33:17;;;;;;;18.15;5.30;;;;;;;;;;4988349;28;20025;-63
2022/01/01 01:35:44;;;;;;;16.45;4.30;;;;;;;;;;4986763;28;20109;-64
2022/01/01 01:38:11;;;;;;;9.73;4.43;;;;;;;;;;4988148;28;20023;-63
2022/01/01 01:40:38;;;;;;;16.55;5.00;;;;;;;;;;4988603;28;20041;-63
2022/01/01 01:43:10;;;;;;;16.60;5.15;;;;;;;;;;4988411;28;20073;-64
2022/01/01 01:45:37;;;;;;;14.27;6.20;;;;;;;;;;4987860;28;20027;-61
2022/01/01 01:48:05;;;;;;;15.40;5.80;;;;;;;;;;4987141;28;20353;-62
2022/01/01 01:50:33;;;;;;;20.75;5.63;;;;;;;;;;4988180;28;20105;-64
2022/01/01 01:53:00;;;;;;;14.80;5.38;;;;;;;;;;4988648;28;20444;-64
2022/01/01 01:55:28;;;;;;;14.13;5.63;;;;;;;;;;4988441;28;20040;-63
2022/01/01 01:57:55;;;;;;;13.63;5.95;;;;;;;;;;4988016;28;20028;-63
2022/01/01 02:00:56;;;;;;;14.60;6.43;;;;;;;;;;4990918;28;20125;-64
2022/01/01 02:03:18;;;;;;;19.42;6.57;;;;;;;;;;4991502;28;20069;-62
2022/01/01 02:05:46;;;;;;;20.75;7.40;;;;;;;;;;4991860;28;20519;-65
2022/01/01 02:08:13;;;;;;;23.80;8.10;;;;;;;;;;4991628;28;20039;-64
2022/01/01 02:10:41;;;;;;;16.45;7.05;;;;;;;;;;4989636;28;20038;-63
2022/01/01 02:13:23;;;;;;;15.68;6.85;;;;;;;;;;4991260;28;20116;-61
2022/01/01 02:18:17;;;;;;;17.50;7.97;;;;;;;;;;4991340;28;20398;-64
2022/01/01 02:20:51;;;;;;;17.08;7.53;;;;;;;;;;4991768;28;20069;-63
2022/01/01 02:23:21;;;;;;;27.35;7.72;;;;;;;;;;4988982;28;20105;-63
2022/01/01 02:25:49;;;;;;;14.82;7.65;;;;;;;;;;4991470;28;20026;-62
2022/01/01 02:28:17;;;;;;;15.63;7.85;;;;;;;;;;4991531;28;20110;-61
2022/01/01 02:30:44;;;;;;;20.75;8.10;;;;;;;;;;4990632;28;20089;-64
2022/01/01 02:33:11;;;;;;;21.85;7.90;;;;;;;;;;4991346;28;20030;-62
2022/01/01 02:35:38;;;;;;;21.10;8.13;;;;;;;;;;4988893;28;20045;-62
2022/01/01 02:38:07;;;;;;;18.42;8.02;;;;;;;;;;4990791;28;20069;-62
2022/01/01 02:40:34;;;;;;;20.90;8.80;;;;;;;;;;4991544;28;20022;-64
2022/01/01 02:43:01;;;;;;;28.58;8.77;;;;;;;;;;4991122;28;20033;-63
2022/01/01 02:45:30;;;;;;;17.00;8.13;;;;;;;;;;4990446;28;20092;-62
2022/01/01 02:47:57;;;;;;;16.92;8.30;;;;;;;;;;4989292;28;20084;-63
2022/01/01 02:50:24;;;;;;;16.88;8.02;;;;;;;;;;4989237;28;20038;-64
2022/01/01 02:52:52;;;;;;;24.77;9.40;;;;;;;;;;4991145;28;20387;-64
2022/01/01 02:55:19;;;;;;;17.05;8.13;;;;;;;;;;4990392;28;20169;-62
2022/01/01 02:57:46;;;;;;;19.45;8.68;;;;;;;;;;4990200;28;20022;-62
2022/01/01 03:00:13;;;;;;;19.20;8.85;;;;;;;;;;4989285;28;20022;-64
2022/01/01 03:02:40;;;;;;;17.42;8.95;;;;;;;;;;4990278;28;20026;-62
2022/01/01 03:05:08;;;;;;;17.98;8.25;;;;;;;;;;4991152;28;20098;-64
2022/01/01 03:07:36;;;;;;;22.52;9.35;;;;;;;;;;4989996;28;20053;-63
2022/01/01 03:10:04;;;;;;;17.60;9.25;;;;;;;;;;4988549;28;20541;-61
2022/01/01 03:12:31;;;;;;;17.35;9.63;;;;;;;;;;4989670;28;20076;-62
2022/01/01 03:14:58;;;;;;;24.88;9.73;;;;;;;;;;4990179;28;20062;-61
2022/01/01 03:17:25;;;;;;;18.88;9.38;;;;;;;;;;4990125;28;20022;-60
2022/01/01 03:19:52;;;;;;;18.35;9.50;;;;;;;;;;4990035;28;20034;-61
2022/01/01 03:22:20;;;;;;;19.90;9.57;;;;;;;;;;4989082;28;20029;-61
2022/01/01 03:24:47;;;;;;;18.10;10.02;;;;;;;;;;4989496;28;20112;-61
2022/01/01 03:27:13;;;;;;;19.35;10.10;;;;;;;;;;4989909;28;20057;-61
2022/01/01 03:29:40;;;;;;;26.40;9.90;;;;;;;;;;4990109;28;20411;-61
2022/01/01 03:32:08;;;;;;;30.08;10.13;;;;;;;;;;4989740;28;20034;-61
2022/01/01 03:34:35;;;;;;;27.55;9.60;;;;;;;;;;4988109;28;20109;-61
2022/01/01 03:37:02;;;;;;;20.83;10.85;;;;;;;;;;4988558;28;20026;-61
2022/01/01 03:39:29;;;;;;;20.23;10.85;;;;;;;;;;4989643;28;20057;-65
2022/01/01 03:41:56;;;;;;;24.10;10.40;;;;;;;;;;4990056;28;20029;-65
2022/01/01 03:44:23;;;;;;;25.02;11.13;;;;;;;;;;4989685;28;20378;-65
2022/01/01 03:46:50;;;;;;;19.58;10.23;;;;;;;;;;4987746;28;20737;-63
2022/01/01 03:49:17;;;;;;;22.50;10.38;;;;;;;;;;4989404;28;20045;-64
2022/01/01 03:51:45;;;;;;;24.70;10.63;;;;;;;;;;4989304;28;20018;-65
2022/01/01 03:54:14;;;;;;;24.92;11.00;;;;;;;;;;4989682;28;20096;-63
2022/01/01 03:56:41;;;;;;;23.10;12.02;;;;;;;;;;4989183;28;20502;-64
2022/01/01 03:59:08;;;;;;;24.58;12.23;;;;;;;;;;4987116;28;20469;-65
2022/01/01 04:01:35;;;;;;;22.15;11.48;;;;;;;;;;4989826;28;20398;-65
2022/01/01 04:04:02;;;;;;;25.33;11.55;;;;;;;;;;4988952;28;20026;-62
2022/01/01 04:06:29;;;;;;;25.17;12.18;;;;;;;;;;4988054;28;20041;-64
2022/01/01 04:08:56;;;;;;;27.08;12.43;;;;;;;;;;4989209;28;20097;-64
2022/01/01 04:11:23;;;;;;;22.40;12.07;;;;;;;;;;4987025;28;20030;-64
2022/01/01 04:13:50;;;;;;;24.73;12.48;;;;;;;;;;4989361;28;20430;-63
2022/01/01 04:16:18;;;;;;;25.20;11.88;;;;;;;;;;4988918;28;20031;-64
2022/01/01 04:18:46;;;;;;;25.98;12.60;;;;;;;;;;4987792;28;20058;-63
2022/01/01 04:21:13;;;;;;;25.13;12.25;;;;;;;;;;4988289;28;20072;-63
2022/01/01 04:23:40;;;;;;;27.40;12.65;;;;;;;;;;4986980;28;20478;-63
2022/01/01 04:26:07;;;;;;;24.27;12.90;;;;;;;;;;4989238;28;20022;-62
2022/01/01 04:28:35;;;;;;;30.73;12.63;;;;;;;;;;4988768;28;20154;-65
2022/01/01 04:31:02;;;;;;;24.52;12.15;;;;;;;;;;4988553;28;20050;-64
2022/01/01 04:33:29;;;;;;;26.60;12.18;;;;;;;;;;4988532;28;20376;-64
2022/01/01 04:35:56;;;;;;;24.52;12.60;;;;;;;;;;4987089;28;20030;-65
2022/01/01 04:38:36;;;;;;;26.90;12.77;;;;;;;;;;4989195;28;20425;-64
2022/01/01 04:41:07;;;;;;;34.47;13.30;;;;;;;;;;4987349;28;20026;-65
2022/01/01 04:43:34;;;;;;;28.80;12.70;;;;;;;;;;4988419;28;20050;-63
2022/01/01 04:46:01;;;;;;;34.97;13.23;;;;;;;;;;4987834;28;20045;-61
2022/01/01 04:48:28;;;;;;;26.63;12.45;;;;;;;;;;4987412;28;20057;-63
2022/01/01 04:50:55;;;;;;;29.85;13.85;;;;;;;;;;4988476;28;20037;-65
2022/01/01 04:53:22;;;;;;;27.23;12.73;;;;;;;;;;4988398;28;20037;-62
2022/01/01 04:55:50;;;;;;;28.30;12.95;;;;;;;;;;4988606;28;20126;-65
2022/01/01 04:58:17;;;;;;;22.95;13.55;;;;;;;;;;4987750;28;20622;-64
2022/01/01 05:00:44;;;;;;;27.45;12.60;;;;;;;;;;4987410;28;20026;-65
2022/01/01 05:03:11;;;;;;;34.70;13.27;;;;;;;;;;4988492;28;20494;-63
2022/01/01 05:05:40;;;;;;;26.48;12.55;;;;;;;;;;4971450;28;20084;-63
2022/01/01 05:08:07;;;;;;;28.70;13.57;;;;;;;;;;4988264;28;20061;-63
2022/01/01 05:10:34;;;;;;;30.35;13.77;;;;;;;;;;4987176;28;20529;-62
2022/01/01 05:13:01;;;;;;;25.02;12.30;;;;;;;;;;4987869;28;20026;-63
2022/01/01 05:15:28;;;;;;;32.60;13.25;;;;;;;;;;4988777;28;20694;-64
2022/01/01 05:17:55;;;;;;;31.15;13.07;;;;;;;;;;4988383;28;20019;-64
2022/01/01 05:20:22;;;;;;;25.70;12.98;;;;;;;;;;4988016;28;20034;-63
2022/01/01 05:22:49;;;;;;;32.80;13.00;;;;;;;;;;4987332;28;20057;-64
2022/01/01 05:25:16;;;;;;;28.20;13.32;;;;;;;;;;4986504;28;20782;-63
2022/01/01 05:27:44;;;;;;;33.90;13.48;;;;;;;;;;4986867;28;20026;-61
2022/01/01 05:30:11;;;;;;;30.58;12.85;;;;;;;;;;4988081;28;20063;-64
2022/01/01 05:32:38;;;;;;;27.38;12.10;;;;;;;;;;4989083;28;20045;-64
2022/01/01 05:35:06;;;;;;;36.55;12.57;;;;;;;;;;4989949;28;20740;-63
2022/01/01 05:37:33;;;;;;;29.17;12.32;;;;;;;;;;4991244;28;20079;-64
2022/01/01 05:40:00;;;;;;;34.55;12.35;;;;;;;;;;4992075;28;20026;-62
2022/01/01 05:42:26;;;;;;;26.15;12.20;;;;;;;;;;4991904;28;20487;-61
2022/01/01 05:44:53;;;;;;;31.92;13.13;;;;;;;;;;4991715;28;20414;-62
2022/01/01 05:47:20;;;;;;;28.30;12.77;;;;;;;;;;4990135;28;20027;-64
2022/01/01 05:49:47;;;;;;;30.83;12.82;;;;;;;;;;4991598;28;20487;-61
2022/01/01 05:52:14;;;;;;;31.33;13.18;;;;;;;;;;4991435;28;20030;-62
2022/01/01 05:54:41;;;;;;;29.13;12.43;;;;;;;;;;4992262;28;20125;-62
2022/01/01 05:57:08;;;;;;;29.73;12.60;;;;;;;;;;4991413;28;20030;-61
2022/01/01 05:59:40;;;;;;;28.77;11.90;;;;;;;;;;4989396;28;20056;-61
2022/01/01 06:02:07;;;;;;;32.73;12.83;;;;;;;;;;4991594;28;20034;-62
2022/01/01 06:04:34;;;;;;;28.10;11.57;;;;;;;;;;4991473;28;20109;-61
2022/01/01 06:07:01;;;;;;;29.63;12.82;;;;;;;;;;4991603;28;20053;-61
2022/01/01 06:09:28;;;;;;;29.33;12.32;;;;;;;;;;4990621;28;20066;-63
2022/01/01 06:11:55;;;;;;;26.77;11.88;;;;;;;;;;4989484;28;20022;-63
2022/01/01 06:14:22;;;;;;;28.15;12.05;;;;;;;;;;4991421;28;20038;-64
2022/01/01 06:16:49;;;;;;;31.05;12.48;;;;;;;;;;4991134;28;20099;-63
2022/01/01 06:19:16;;;;;;;27.42;11.43;;;;;;;;;;4991484;28;20026;-65
2022/01/01 06:21:43;;;;;;;25.17;10.85;;;;;;;;;;4990478;28;20034;-64
2022/01/01 06:24:10;;;;;;;25.90;11.80;;;;;;;;;;4989311;28;20506;-63
2022/01/01 06:26:37;;;;;;;21.25;10.68;;;;;;;;;;4990993;28;20026;-65
2022/01/01 06:29:04;;;;;;;31.83;11.95;;;;;;;;;;4990738;28;20034;-63
2022/01/01 06:31:31;;;;;;;30.67;10.52;;;;;;;;;;4991022;28;20403;-65
2022/01/01 06:33:58;;;;;;;27.70;10.27;;;;;;;;;;4989592;28;20406;-64
2022/01/01 06:36:25;;;;;;;31.17;8.90;;;;;;;;;;4989908;28;20380;-65
2022/01/01 06:38:52;;;;;;;23.73;10.43;;;;;;;;;;4991039;28;20501;-66
2022/01/01 06:41:20;;;;;;;18.40;8.43;;;;;;;;;;4990200;28;20382;-64
2022/01/01 06:43:47;;;;;;;24.52;9.05;;;;;;;;;;4990087;28;20476;-65
2022/01/01 06:46:14;;;;;;;25.02;8.65;;;;;;;;;;4988748;28;20027;-65
2022/01/01 06:48:41;;;;;;;18.42;8.80;;;;;;;;;;4989974;28;20026;-65
2022/01/01 06:51:08;;;;;;;25.38;8.18;;;;;;;;;;4990530;28;20035;-64
2022/01/01 06:53:35;;;;;;;27.48;9.93;;;;;;;;;;4990441;28;20034;-64
2022/01/01 06:56:05;;;;;;;24.67;8.13;;;;;;;;;;4990544;28;20088;-63
2022/01/01 06:58:33;;;;;;;24.17;8.23;;;;;;;;;;4988976;28;20554;-64
2022/01/01 07:01:00;;;;;;;16.80;7.25;;;;;;;;;;4990176;28;20509;-64
2022/01/01 07:03:27;;;;;;;16.85;7.72;;;;;;;;;;4989254;28;20034;-63
2022/01/01 07:05:54;;;;;;;25.60;8.38;;;;;;;;;;4988631;28;20089;-64
2022/01/01 07:08:21;;;;;;;25.08;8.70;;;;;;;;;;4989102;28;20635;-64
2022/01/01 07:10:48;;;;;;;16.95;8.15;;;;;;;;;;4988541;28;20038;-65
2022/01/01 07:13:15;;;;;;;16.73;7.47;;;;;;;;;;4989729;28;20027;-61
2022/01/01 07:15:42;;;;;;;18.63;8.13;;;;;;;;;;4990349;28;20390;-64
2022/01/01 07:18:09;;;;;;;19.20;8.32;;;;;;;;;;4989979;28;20093;-62
2022/01/01 07:20:36;;;;;;;15.02;7.43;;;;;;;;;;4989858;28;20034;-65
2022/01/01 07:23:03;;;;;;;18.92;8.05;;;;;;;;;;4987576;28;20558;-62
2022/01/01 07:25:30;;;;;;;21.92;6.85;;;;;;;;;;4989670;28;20076;-63
2022/01/01 07:27:58;;;;;;;12.70;7.15;;;;;;;;;;4988928;28;20383;-61
2022/01/01 07:30:25;;;;;;;13.88;7.75;;;;;;;;;;4989134;28;20094;-61
2022/01/01 07:32:52;;;;;;;15.75;7.93;;;;;;;;;;4989707;28;20493;-61
2022/01/01 07:35:20;;;;;;;12.88;6.78;;;;;;;;;;4987813;28;20026;-62
2022/01/01 07:37:47;;;;;;;44.65;7.38;;;;;;;;;;4989397;28;20045;-61
2022/01/01 07:40:15;;;;;;;11.70;7.38;;;;;;;;;;4989718;28;20034;-64
2022/01/01 07:42:43;;;;;;;14.63;6.97;;;;;;;;;;4989371;28;20026;-61
2022/01/01 07:45:11;;;;;;;15.48;6.50;;;;;;;;;;4989283;28;20479;-62
2022/01/01 07:47:38;;;;;;;13.68;7.18;;;;;;;;;;4988021;28;20046;-64
2022/01/01 07:50:06;;;;;;;13.73;6.90;;;;;;;;;;4989184;28;20045;-63
2022/01/01 07:52:33;;;;;;;14.00;6.57;;;;;;;;;;4989859;28;20021;-62
2022/01/01 07:55:00;;;;;;;14.10;6.97;;;;;;;;;;4989175;28;20069;-62
2022/01/01 07:57:27;;;;;;;17.15;7.15;;;;;;;;;;4988562;28;20018;-64
2022/01/01 07:59:54;;;;;;;13.93;6.75;;;;;;;;;;4988384;28;20682;-63
2022/01/01 08:02:21;;;;;;;14.77;6.85;;;;;;;;;;4989134;28;20068;-63
2022/01/01 08:04:48;;;;;;;13.13;5.70;;;;;;;;;;4989485;28;20465;-64
2022/01/01 08:07:15;;;;;;;13.57;6.78;;;;;;;;;;4989207;28;20478;-61
2022/01/01 08:09:42;;;;;;;14.73;6.72;;;;;;;;;;4986335;28;20423;-61
2022/01/01 08:12:09;;;;;;;13.32;6.43;;;;;;;;;;4988482;28;20149;-62
2022/01/01 08:14:36;;;;;;;14.93;6.55;;;;;;;;;;4988823;28;20101;-64
2022/01/01 08:17:04;;;;;;;13.77;6.28;;;;;;;;;;4987904;28;20523;-62
2022/01/01 08:19:32;;;;;;;13.00;5.85;;;;;;;;;;4989075;28;20023;-62
2022/01/01 08:21:59;;;;;;;12.18;6.13;;;;;;;;;;4987534;28;20146;-61
2022/01/01 08:24:26;;;;;;;15.02;6.55;;;;;;;;;;4988331;28;20022;-62
2022/01/01 08:26:53;;;;;;;11.65;5.68;;;;;;;;;;4989092;28;20666;-64
2022/01/01 08:29:20;;;;;;;12.40;5.60;;;;;;;;;;4988772;28;20550;-61
2022/01/01 08:31:47;;;;;;;16.65;6.13;;;;;;;;;;4989047;28;20021;-61
2022/01/01 08:34:14;;;;;;;12.80;5.85;;;;;;;;;;4987473;28;20110;-61
2022/01/01 08:36:41;;;;;;;14.18;6.22;;;;;;;;;;4988173;28;20023;-61
2022/01/01 08:39:08;;;;;;;19.85;6.25;;;;;;;;;;4988438;28;20102;-61
2022/01/01 08:41:36;;;;;;;10.70;5.05;;;;;;;;;;4988907;28;20050;-61
2022/01/01 08:44:03;;;;;;;12.93;5.47;;;;;;;;;;4988941;28;20029;-61
2022/01/01 08:46:30;;;;;;;10.00;5.07;;;;;;;;;;4986600;28;20034;-61
2022/01/01 08:48:57;;;;;;;11.85;5.50;;;;;;;;;;4988697;28;20025;-61
2022/01/01 08:51:24;;;;;;;10.13;5.70;;;;;;;;;;4988525;28;20030;-65
2022/01/01 08:53:56;;;;;;;11.95;5.80;;;;;;;;;;4988330;28;20565;-65
2022/01/01 08:56:24;;;;;;;13.10;5.80;;;;;;;;;;4988664;28;20018;-65
2022/01/01 08:58:50;;;;;;;11.68;6.07;;;;;;;;;;4986523;28;20214;-65
2022/01/01 09:01:18;;;;;;;12.88;5.53;;;;;;;;;;4988463;28;20014;-64
2022/01/01 09:03:45;;;;;;;12.55;5.45;;;;;;;;;;4986974;28;20537;-65
2022/01/01 09:06:12;;;;;;;12.85;4.95;;;;;;;;;;4988265;28;20073;-64
2022/01/01 09:08:42;;;;;;;19.00;5.57;;;;;;;;;;4989737;28;20031;-64
2022/01/01 09:11:10;;;;;;;7.93;4.47;;;;;;;;;;4988432;28;20434;-64
2022/01/01 09:13:42;;;;;;;9.75;4.72;;;;;;;;;;4992487;28;20026;-64
2022/01/01 09:16:14;;;;;;;8.05;4.88;;;;;;;;;;4992541;28;20077;-65
2022/01/01 09:18:42;;;;;;;8.20;4.70;;;;;;;;;;4991766;28;20069;-65
2022/01/01 09:21:09;;;;;;;16.35;4.93;;;;;;;;;;4991928;28;20135;-64
2022/01/01 09:23:36;;;;;;;11.85;4.85;;;;;;;;;;4990332;28;20026;-65
2022/01/01 09:26:03;;;;;;;8.18;4.43;;;;;;;;;;4991947;28;20018;-65
2022/01/01 09:28:31;;;;;;;8.50;4.30;;;;;;;;;;4992462;28;20038;-64
2022/01/01 09:30:58;;;;;;;11.45;4.50;;;;;;;;;;4991688;28;20054;-65
2022/01/01 09:33:29;;;;;;;14.50;4.57;;;;;;;;;;4991707;28;20112;-64
2022/01/01 09:35:57;;;;;;;10.27;4.63;;;;;;;;;;4990343;28;20037;-65
2022/01/01 09:38:24;;;;;;;8.75;4.32;;;;;;;;;;4991821;28;20023;-65
2022/01/01 09:40:54;;;;;;;8.88;5.03;;;;;;;;;;4992299;28;20366;-65
2022/01/01 09:43:22;;;;;;;8.75;4.47;;;;;;;;;;4991871;28;20034;-64
2022/01/01 09:45:53;;;;;;;9.98;4.63;;;;;;;;;;4990918;28;20033;-61
2022/01/01 09:48:21;;;;;;;8.80;4.05;;;;;;;;;;4990868;28;20026;-65
2022/01/01 09:50:49;;;;;;;8.43;4.40;;;;;;;;;;4991429;28;20034;-63
2022/01/01 09:53:20;;;;;;;10.00;4.18;;;;;;;;;;4991834;28;20019;-64
2022/01/01 09:55:48;;;;;;;7.90;3.97;;;;;;;;;;4991575;28;20026;-65
2022/01/01 09:58:15;;;;;;;7.85;3.72;;;;;;;;;;4990224;28;20335;-61
2022/01/01 10:00:42;;;;;;;10.27;4.32;;;;;;;;;;4991022;28;20050;-61
2022/01/01 10:03:15;;;;;;;9.27;3.85;;;;;;;;;;4990995;28;20077;-62
2022/01/01 10:05:58;;;;;;;8.82;4.40;;;;;;;;;;4990440;28;20088;-62
2022/01/01 10:08:25;;;;;;;12.43;4.28;;;;;;;;;;4991366;28;20026;-63
2022/01/01 10:10:53;;;;;;;9.18;3.85;;;;;;;;;;4988896;28;20050;-64
2022/01/01 10:13:26;;;;;;;7.88;4.18;;;;;;;;;;4991310;28;20579;-63
2022/01/01 10:15:54;;;;;;;8.20;3.78;;;;;;;;;;4991183;28;20019;-63
2022/01/01 10:18:29;;;;;;;5.60;3.70;;;;;;;;;;4990971;28;20030;-63
2022/01/01 10:21:08;;;;;;;8.52;4.10;;;;;;;;;;4990888;28;20030;-62
2022/01/01 10:23:36;;;;;;;6.75;3.72;;;;;;;;;;4988933;28;20026;-63
2022/01/01 10:29:05;;;;;;;6.75;3.72;;;;;;;;;;4991443;28;20425;-62
2022/01/01 10:31:35;;;;;;;6.47;3.80;;;;;;;;;;4990742;28;20395;-64
2022/01/01 10:34:09;;;;;;;9.85;3.97;;;;;;;;;;4989660;28;20049;-60
2022/01/01 10:36:36;;;;;;;10.18;3.28;;;;;;;;;;4989952;28;20026;-65
2022/01/01 10:39:11;;;;;;;6.30;3.70;;;;;;;;;;4990762;28;20030;-63
2022/01/01 10:41:44;;;;;;;8.80;3.85;;;;;;;;;;4991075;28;20030;-64
2022/01/01 10:44:12;;;;;;;6.68;3.20;;;;;;;;;;4990463;28;20018;-64
2022/01/01 10:46:40;;;;;;;7.78;3.47;;;;;;;;;;4988757;28;20113;-60
2022/01/01 10:52:19;;;;;;;6.65;3.20;;;;;;;;;;4988590;28;20046;-65
2022/01/01 10:54:50;;;;;;;7.75;3.40;;;;;;;;;;4990527;28;20054;-62
2022/01/01 10:57:24;;;;;;;6.68;3.50;;;;;;;;;;4990377;28;20030;-63
2022/01/01 10:59:52;;;;;;;7.13;3.25;;;;;;;;;;4988591;28;20034;-62
2022/01/01 11:02:24;;;;;;;6.20;3.25;;;;;;;;;;4990444;28;20733;-63
2022/01/01 11:04:52;;;;;;;8.93;3.03;;;;;;;;;;4989020;28;20105;-62
2022/01/01 11:07:26;;;;;;;4.78;2.92;;;;;;;;;;4990284;28;20030;-60
2022/01/01 11:09:53;;;;;;;5.05;2.80;;;;;;;;;;4989193;28;20031;-60
2022/01/01 11:12:22;;;;;;;5.22;3.13;;;;;;;;;;4988814;28;20438;-61
2022/01/01 11:14:49;;;;;;;4.18;2.63;;;;;;;;;;4990669;28;20027;-61
2022/01/01 11:17:17;;;;;;;10.23;3.17;;;;;;;;;;4989998;28;20073;-60
2022/01/01 11:19:44;;;;;;;4.45;2.72;;;;;;;;;;4989859;28;20026;-60
2022/01/01 11:22:11;;;;;;;7.43;2.97;;;;;;;;;;4989070;28;20081;-62
2022/01/01 11:24:41;;;;;;;3.88;2.70;;;;;;;;;;4989110;28;20018;-61
2022/01/01 11:27:09;;;;;;;5.50;2.88;;;;;;;;;;4987995;28;20660;-66
2022/01/01 11:29:36;;;;;;;6.93;2.90;;;;;;;;;;4989908;28;20068;-67
2022/01/01 11:32:05;;;;;;;6.32;2.83;;;;;;;;;;4989446;28;20030;-66
2022/01/01 11:34:36;;;;;;;8.35;2.95;;;;;;;;;;4988164;28;20116;-65
2022/01/01 11:37:03;;;;;;;8.15;2.97;;;;;;;;;;4989040;28;20030;-65
2022/01/01 11:39:31;;;;;;;5.05;2.70;;;;;;;;;;4989718;28;20546;-66
2022/01/01 11:42:15;;;;;;;6.30;2.47;;;;;;;;;;4989736;28;20508;-66
2022/01/01 11:44:52;;;;;;;10.45;2.80;;;;;;;;;;4989103;28;20153;-66
2022/01/01 11:47:21;;;;;;;4.72;2.67;;;;;;;;;;4987387;28;20503;-65
2022/01/01 11:49:49;;;;;;;9.52;2.47;;;;;;;;;;4989784;28;20026;-66
2022/01/01 11:52:34;;;;;;;6.00;2.80;;;;;;;;;;4989223;28;20034;-63
2022/01/01 11:55:03;;;;;;;4.35;2.60;;;;;;;;;;4989393;28;20054;-65
2022/01/01 11:57:31;;;;;;;15.77;2.50;;;;;;;;;;4987229;28;20026;-66
2022/01/01 12:00:02;;;;;;;4.80;2.60;;;;;;;;;;4987807;28;20026;-65
2022/01/01 12:02:31;;;;;;;5.03;2.40;;;;;;;;;;4989518;28;20034;-65
2022/01/01 12:05:14;;;;;;;3.63;2.58;;;;;;;;;;4988911;28;20506;-66
2022/01/01 12:07:43;;;;;;;4.75;2.50;;;;;;;;;;4987796;28;20042;-65
2022/01/01 12:10:11;;;;;;;3.70;2.38;;;;;;;;;;4987761;28;20550;-65
2022/01/01 12:12:53;;;;;;;4.00;2.10;;;;;;;;;;4986755;28;20022;-62
2022/01/01 12:15:22;;;;;;;6.60;2.08;;;;;;;;;;4989205;28;20022;-63
2022/01/01 12:17:53;;;;;;;2.95;1.98;;;;;;;;;;4989178;28;20018;-65
2022/01/01 12:20:24;;;;;;;5.82;2.25;;;;;;;;;;4987530;28;20121;-66
2022/01/01 12:22:51;;;;;;;6.57;2.00;;;;;;;;;;4986938;28;20033;-63
2022/01/01 12:25:22;;;;;;;5.13;2.20;;;;;;;;;;4988891;28;20053;-66
2022/01/01 12:27:51;;;;;;;3.67;1.92;;;;;;;;;;4988645;28;20024;-64
2022/01/01 12:30:36;;;;;;;6.00;2.25;;;;;;;;;;4988618;28;20045;-63
2022/01/01 12:33:03;;;;;;;5.60;2.45;;;;;;;;;;4988250;28;20101;-65
2022/01/01 12:35:47;;;;;;;3.88;2.00;;;;;;;;;;4987324;28;20029;-65
2022/01/01 12:38:27;;;;;;;4.43;1.95;;;;;;;;;;4988998;28;20081;-66
2022/01/01 12:40:57;;;;;;;7.97;2.28;;;;;;;;;;4988506;28;20026;-63
2022/01/01 12:43:25;;;;;;;4.43;1.63;;;;;;;;;;4987803;28;20065;-63
2022/01/01 12:45:53;;;;;;;12.90;2.75;;;;;;;;;;4987751;28;20079;-63
2022/01/01 12:48:27;;;;;;;3.70;2.03;;;;;;;;;;4987606;28;20034;-65
2022/01/01 12:51:01;;;;;;;3.40;2.05;;;;;;;;;;4987531;28;20046;-65
2022/01/01 12:53:28;;;;;;;4.68;2.15;;;;;;;;;;4988373;28;20023;-64
2022/01/01 12:56:21;;;;;;;3.63;2.13;;;;;;;;;;4988613;28;20026;-65
2022/01/01 12:58:50;;;;;;;9.48;1.88;;;;;;;;;;4984028;28;20030;-62
2022/01/01 13:01:17;;;;;;;5.93;2.10;;;;;;;;;;4988558;28;20670;-65
2022/01/01 13:03:45;;;;;;;3.67;1.98;;;;;;;;;;4988885;28;20018;-62
2022/01/01 13:06:20;;;;;;;3.65;2.03;;;;;;;;;;4988544;28;20058;-64
2022/01/01 13:08:47;;;;;;;5.45;1.80;;;;;;;;;;4988084;28;20049;-62
2022/01/01 13:11:15;;;;;;;9.68;1.70;;;;;;;;;;4986670;28;20376;-61
2022/01/01 13:13:43;;;;;;;2.30;1.50;;;;;;;;;;4987141;28;20097;-65
2022/01/01 13:16:10;;;;;;;9.07;1.67;;;;;;;;;;4988082;28;20026;-62
2022/01/01 13:18:37;;;;;;;17.45;2.85;;;;;;;;;;4988338;28;20030;-65
2022/01/01 13:21:05;;;;;;;4.75;1.70;;;;;;;;;;4988088;28;20030;-63
2022/01/01 13:23:32;;;;;;;8.23;2.08;;;;;;;;;;4986639;28;20080;-62
2022/01/01 13:25:59;;;;;;;5.72;1.70;;;;;;;;;;4988015;28;20029;-65
2022/01/01 13:28:29;;;;;;;3.05;1.77;;;;;;;;;;4988374;28;20387;-64
2022/01/01 13:30:57;;;;;;;4.22;1.40;;;;;;;;;;4988168;28;20069;-66
2022/01/01 13:33:24;;;;;;;31.92;3.35;;;;;;;;;;4987362;28;20033;-63
2022/01/01 13:35:54;;;;;;;6.38;1.70;;;;;;;;;;4987047;28;20106;-64
2022/01/01 13:38:21;;;;;;;7.60;1.38;;;;;;;;;;4988209;28;20019;-65
2022/01/01 13:40:49;;;;;;;5.40;1.80;;;;;;;;;;4987989;28;20027;-62
2022/01/01 13:43:17;;;;;;;5.93;1.55;;;;;;;;;;4987026;28;20474;-64
2022/01/01 13:45:44;;;;;;;5.32;1.33;;;;;;;;;;4986829;28;20715;-62
2022/01/01 13:48:12;;;;;;;3.45;1.45;;;;;;;;;;4987099;28;20022;-64
2022/01/01 13:50:49;;;;;;;3.90;1.55;;;;;;;;;;4988433;28;20119;-62
2022/01/01 13:53:16;;;;;;;4.38;1.48;;;;;;;;;;4988359;28;20475;-64
2022/01/01 13:55:56;;;;;;;5.78;1.63;;;;;;;;;;4992042;28;20058;-62
2022/01/01 13:58:24;;;;;;;3.97;1.70;;;;;;;;;;4989701;28;20027;-65
2022/01/01 14:00:56;;;;;;;6.13;1.50;;;;;;;;;;4991022;28;20117;-66
2022/01/01 14:03:24;;;;;;;5.03;1.40;;;;;;;;;;4991861;28;20663;-66
2022/01/01 14:05:55;;;;;;;8.85;1.50;;;;;;;;;;4991193;28;20026;-65
2022/01/01 14:08:22;;;;;;;5.32;1.60;;;;;;;;;;4991463;28;20150;-65
2022/01/01 14:10:53;;;;;;;2.83;1.40;;;;;;;;;;4989169;28;20501;-65
2022/01/01 14:13:46;;;;;;;3.67;1.70;;;;;;;;;;4991288;28;20053;-65
2022/01/01 14:16:21;;;;;;;4.15;1.50;;;;;;;;;;4988907;28;20081;-64
2022/01/01 14:18:49;;;;;;;4.50;1.23;;;;;;;;;;4990934;28;20050;-65
2022/01/01 14:21:16;;;;;;;3.50;1.20;;;;;;;;;;4990486;28;20324;-63
2022/01/01 14:23:45;;;;;;;3.55;1.45;;;;;;;;;;4989978;28;20566;-65
2022/01/01 14:26:17;;;;;;;3.25;1.33;;;;;;;;;;4990597;28;20026;-65
2022/01/01 14:28:47;;;;;;;3.00;1.20;;;;;;;;;;4991194;28;20029;-63
2022/01/01 14:31:15;;;;;;;4.32;1.40;;;;;;;;;;4990834;28;20305;-64
2022/01/01 14:33:43;;;;;;;3.38;1.63;;;;;;;;;;4988697;28;20018;-65
2022/01/01 14:36:11;;;;;;;5.95;1.58;;;;;;;;;;4989931;28;20034;-62
2022/01/01 14:38:39;;;;;;;4.15;1.15;;;;;;;;;;4990406;28;20018;-64
2022/01/01 14:41:30;;;;;;;2.65;1.10;;;;;;;;;;4991050;28;20030;-63
2022/01/01 14:43:57;;;;;;;2.83;1.17;;;;;;;;;;4991205;28;20038;-65
2022/01/01 14:46:25;;;;;;;3.20;1.30;;;;;;;;;;4988866;28;20054;-64
2022/01/01 14:49:02;;;;;;;3.45;1.40;;;;;;;;;;4990132;28;20047;-64
2022/01/01 14:51:35;;;;;;;3.13;1.10;;;;;;;;;;4990744;28;20057;-64